Stormwatcher's Retreat Logo




                  Temp     Hi    Low   Out    Dew  Wind  Wind   Wind    Hi    Hi   Wind   Heat    THW   THSW                Rain  Solar   Solar Hi Solar   UV    UV    Hi     Heat    Cool    In     In    In     In     In   In Air          Wind  Wind    ISS   Arc.
  Date    Time     Out   Temp   Temp   Hum    Pt. Speed   Dir    Run Speed   Dir  Chill  Index  Index  Index   Bar    Rain  Rate   Rad.  Energy    Rad.  Index  Dose   UV     D-D     D-D    Temp   Hum    Dew   Heat    EMC Density     ET   Samp   Tx   Recept  Int.
------------------------------------------------------------------------------------------------------------------------------------------------------------------------------------------------------------------------------------------------------------------------
 9/03/26 12:10a   58.3   58.3   58.1    94   56.6  13.0     S   2.17  24.0     S   53.3   58.6   53.6   51.7  29.842  0.00  0.00     0     0.00      0     0.0  0.00   0.0   0.047   0.000   72.2    56   55.6   71.9  10.31  .0733    0.000   202    7    100.0   10 
 9/03/26 12:20a   58.1   58.3   58.1    94   56.4  13.0     S   2.17  24.0   SSE   53.1   58.4   53.4   51.5  29.843  0.00  0.00     0     0.00      0     0.0  0.00   0.0   0.048   0.000   72.2    56   55.6   71.9  10.31  .0733    0.000   203    7    100.0   10 
 9/03/26 12:30a   58.0   58.2   58.0    94   56.3  12.0     S   2.00  23.0     S   53.5   58.3   53.8   51.8  29.841  0.00  0.00     0     0.00      0     0.0  0.00   0.0   0.049   0.000   72.1    56   55.5   71.7  10.31  .0733    0.000   204    7    100.0   10 
 9/03/26 12:40a   58.1   58.1   57.9    94   56.4  11.0     S   1.83  21.0     S   54.1   58.4   54.4   52.4  29.842  0.00  0.00     0     0.00      0     0.0  0.00   0.0   0.048   0.000   72.1    56   55.5   71.7  10.31  .0733    0.000   203    7    100.0   10 
 9/03/26 12:50a   58.2   58.2   58.1    93   56.2  13.0     S   2.17  24.0   SSE   53.2   58.4   53.4   51.5  29.842  0.00  0.00     0     0.00      0     0.0  0.00   0.0   0.047   0.000   72.1    56   55.5   71.7  10.31  .0733    0.000   203    7    100.0   10 
 9/03/26  1:00a   58.1   58.2   58.1    94   56.4  12.0     S   2.00  25.0   SSE   53.6   58.4   53.9   51.9  29.842  0.00  0.00     0     0.00      0     0.0  0.00   0.0   0.048   0.000   72.0    56   55.4   71.6  10.31  .0733    0.001   200    7    100.0   10 
 9/03/26  1:10a   58.1   58.1   58.0    94   56.4  13.0     S   2.17  25.0     S   53.1   58.4   53.4   51.5  29.841  0.00  0.00     0     0.00      0     0.0  0.00   0.0   0.048   0.000   72.0    56   55.4   71.6  10.31  .0733    0.000   202    7    100.0   10 
 9/03/26  1:20a   58.4   58.4   58.1    94   56.7  11.0     S   1.83  20.0   SSE   54.5   58.7   54.8   52.8  29.839  0.00  0.00     0     0.00      0     0.0  0.00   0.0   0.046   0.000   72.0    56   55.4   71.6  10.31  .0733    0.000   203    7    100.0   10 
 9/03/26  1:30a   58.6   58.6   58.4    94   56.9  14.0     S   2.33  27.0   SSE   53.3   58.9   53.6   51.8  29.839  0.00  0.00     0     0.00      0     0.0  0.00   0.0   0.044   0.000   72.0    56   55.4   71.6  10.31  .0733    0.000   204    7    100.0   10 
 9/03/26  1:40a   58.7   58.7   58.5    93   56.7  14.0     S   2.33  24.0     S   53.4   59.0   53.7   51.9  29.839  0.00  0.00     0     0.00      0     0.0  0.00   0.0   0.044   0.000   71.9    56   55.3   71.4  10.31  .0734    0.000   202    7    100.0   10 
 9/03/26  1:50a   58.7   58.8   58.6    93   56.7  14.0     S   2.33  28.0   SSE   53.4   59.0   53.7   51.9  29.834  0.00  0.00     0     0.00      0     0.0  0.00   0.0   0.044   0.000   71.9    56   55.3   71.4  10.31  .0733    0.000   202    7    100.0   10 
 9/03/26  2:00a   58.6   58.7   58.6    93   56.6  14.0     S   2.33  24.0     S   53.3   58.9   53.6   51.8  29.838  0.00  0.00     0     0.00      0     0.0  0.00   0.0   0.044   0.000   71.9    56   55.3   71.4  10.31  .0733    0.001   204    7    100.0   10 
 9/03/26  2:10a   58.6   58.7   58.6    93   56.6  12.0     S   2.00  19.0     S   54.2   58.9   54.5   52.5  29.834  0.00  0.00     0     0.00      0     0.0  0.00   0.0   0.044   0.000   71.9    56   55.3   71.4  10.31  .0733    0.000   203    7    100.0   10 
 9/03/26  2:20a   58.6   58.7   58.6    93   56.6  13.0     S   2.17  24.0     S   53.7   58.9   54.0   52.1  29.832  0.00  0.00     0     0.00      0     0.0  0.00   0.0   0.044   0.000   71.8    56   55.3   71.3  10.31  .0734    0.000   204    7    100.0   10 
 9/03/26  2:30a   58.7   58.7   58.6    93   56.7  15.0     S   2.50  27.0   SSE   53.1   59.0   53.4   51.6  29.829  0.00  0.00     0     0.00      0     0.0  0.00   0.0   0.044   0.000   71.8    56   55.3   71.3  10.31  .0733    0.000   203    7    100.0   10 
 9/03/26  2:40a   58.7   58.8   58.7    93   56.7  17.0     S   2.83  29.0   SSE   52.5   59.0   52.8   51.1  29.829  0.00  0.00     0     0.00      0     0.0  0.00   0.0   0.044   0.000   71.8    56   55.3   71.3  10.31  .0733    0.000   203    7    100.0   10 
 9/03/26  2:50a   58.8   58.8   58.6    93   56.8  15.0     S   2.50  29.0   SSE   53.2   59.1   53.5   51.7  29.831  0.00  0.00     0     0.00      0     0.0  0.00   0.0   0.043   0.000   71.8    56   55.3   71.3  10.31  .0733    0.000   201    7    100.0   10 
 9/03/26  3:00a   58.5   58.8   58.5    93   56.5  17.0     S   2.83  35.0   SSE   52.3   58.8   52.6   50.9  29.827  0.00  0.00     0     0.00      0     0.0  0.00   0.0   0.045   0.000   71.7    56   55.2   71.1  10.32  .0734    0.001   203    7    100.0   10 
 9/03/26  3:10a   58.4   58.6   58.4    93   56.4  14.0     S   2.33  28.0   SSE   53.1   58.7   53.4   51.6  29.824  0.00  0.00     0     0.00      0     0.0  0.00   0.0   0.046   0.000   71.7    56   55.2   71.1  10.32  .0733    0.000   201    7    100.0   10 
 9/03/26  3:20a   58.4   58.5   58.4    93   56.4  14.0     S   2.33  26.0     S   53.1   58.7   53.4   51.6  29.821  0.00  0.00     0     0.00      0     0.0  0.00   0.0   0.046   0.000   71.7    56   55.2   71.1  10.32  .0733    0.000   204    7    100.0   10 
 9/03/26  3:30a   58.4   58.5   58.4    93   56.4  14.0     S   2.33  23.0   SSE   53.1   58.7   53.4   51.6  29.826  0.01  0.00     0     0.00      0     0.0  0.00   0.0   0.046   0.000   71.7    56   55.2   71.1  10.32  .0734    0.000   203    7    100.0   10 
 9/03/26  3:40a   57.7   58.3   57.6    94   56.0  12.0     S   2.00  24.0   SSE   53.1   57.9   53.3   51.3  29.822  0.03  0.61     0     0.00      0     0.0  0.00   0.0   0.051   0.000   71.7    56   55.2   71.1  10.32  .0733    0.000   201    7    100.0   10 
 9/03/26  3:50a   57.9   57.9   57.6    94   56.2  14.0     S   2.33  24.0   SSE   52.5   58.2   52.8   51.0  29.818  0.00  0.04     0     0.00      0     0.0  0.00   0.0   0.049   0.000   71.7    56   55.2   71.1  10.32  .0733    0.000   204    7    100.0   10 
 9/03/26  4:00a   58.2   58.2   57.9    93   56.2  11.0     S   1.83  27.0   SSE   54.2   58.4   54.4   52.4  29.817  0.00  0.00     0     0.00      0     0.0  0.00   0.0   0.047   0.000   71.7    56   55.2   71.1  10.32  .0733    0.001   204    7    100.0   10 
 9/03/26  4:10a   58.2   58.3   58.2    92   55.9  12.0     S   2.00  22.0   SSE   53.7   58.4   53.9   51.9  29.827  0.04  0.79     0     0.00      0     0.0  0.00   0.0   0.047   0.000   71.7    56   55.2   71.1  10.32  .0734    0.000   202    7    100.0   10 
 9/03/26  4:20a   57.4   58.2   57.4    93   55.4  15.0     S   2.50  23.0     S   51.6   57.6   51.8   50.0  29.835  0.05  0.79     0     0.00      0     0.0  0.00   0.0   0.053   0.000   71.7    56   55.2   71.1  10.32  .0734    0.000   202    7    100.0   10 
 9/03/26  4:30a   57.1   57.4   57.1    94   55.4  13.0     S   2.17  20.0   SSE   52.0   57.3   52.2   50.3  29.832  0.04  1.11     0     0.00      0     0.0  0.00   0.0   0.055   0.000   71.6    56   55.1   71.0  10.32  .0734    0.000   204    7    100.0   10 
 9/03/26  4:40a   56.9   57.1   56.9    95   55.5  14.0    SW   2.33  21.0    SW   51.4   57.1   51.6   49.8  29.830  0.09  1.44     0     0.00      0     0.0  0.00   0.0   0.056   0.000   71.6    56   55.1   71.0  10.32  .0734    0.000   203    7    100.0   10 
 9/03/26  4:50a   57.1   57.1   56.8    95   55.7  11.0     S   1.83  18.0     S   53.0   57.3   53.2   51.2  29.823  0.04  1.38     0     0.00      0     0.0  0.00   0.0   0.055   0.000   71.6    56   55.1   71.0  10.32  .0734    0.000   202    7    100.0   10 
 9/03/26  5:00a   57.2   57.2   57.1    95   55.8  13.0    SW   2.17  19.0    SW   52.1   57.4   52.3   50.4  29.816  0.00  0.05     0     0.00      0     0.0  0.00   0.0   0.054   0.000   71.6    56   55.1   71.0  10.32  .0733    0.001   203    7    100.0   10 
 9/03/26  5:10a   58.2   58.2   57.2    94   56.5  15.0     S   2.50  27.0   SSE   52.5   58.5   52.8   51.0  29.808  0.00  0.00     0     0.00      0     0.0  0.00   0.0   0.047   0.000   71.5    56   55.0   70.8  10.32  .0733    0.000   203    7    100.0   10 
 9/03/26  5:20a   58.5   58.6   58.2    93   56.5  15.0     S   2.50  29.0   SSE   52.9   58.8   53.2   51.4  29.810  0.00  0.00     0     0.00      0     0.0  0.00   0.0   0.045   0.000   71.6    56   55.1   71.0  10.32  .0733    0.000   204    7    100.0   10 
 9/03/26  5:30a   58.5   58.6   58.5    93   56.5  15.0     S   2.50  27.0     S   52.9   58.8   53.2   51.4  29.806  0.00  0.00     0     0.00      0     0.0  0.00   0.0   0.045   0.000   71.6    56   55.1   71.0  10.32  .0733    0.000   201    7    100.0   10 
 9/03/26  5:40a   58.4   58.6   58.4    93   56.4  13.0     S   2.17  24.0   SSE   53.4   58.7   53.7   51.8  29.811  0.00  0.00     0     0.00      0     0.0  0.00   0.0   0.046   0.000   71.7    56   55.2   71.1  10.32  .0733    0.000   204    7    100.0   10 
 9/03/26  5:50a   58.4   58.5   58.3    93   56.4  10.0     S   1.67  24.0   SSE   55.1   58.7   55.4   53.3  29.808  0.00  0.00     0     0.00      0     0.0  0.00   0.0   0.046   0.000   71.8    56   55.3   71.3  10.31  .0733    0.000   205    7    100.0   10 
 9/03/26  6:00a   58.4   58.6   58.4    92   56.1  12.0     S   2.00  26.0     S   53.9   58.6   54.1   52.1  29.803  0.00  0.00     0     0.00      0     0.0  0.00   0.0   0.046   0.000   71.8    56   55.3   71.3  10.31  .0733    0.001   200    7    100.0   10 
 9/03/26  6:10a   58.6   58.6   58.4    93   56.6  10.0     S   1.67  17.0   SSE   55.3   58.9   55.6   53.5  29.808  0.00  0.00     0     0.00      0     0.0  0.00   0.0   0.044   0.000   71.8    56   55.3   71.3  10.31  .0733    0.000   203    7    100.0   10 
 9/03/26  6:20a   58.5   58.6   58.5    93   56.5  13.0     S   2.17  21.0   SSE   53.6   58.8   53.9   52.0  29.806  0.00  0.00     0     0.00      0     0.0  0.00   0.0   0.045   0.000   71.8    56   55.3   71.3  10.31  .0733    0.000   204    7    100.0   10 
 9/03/26  6:30a   58.5   58.6   58.4    93   56.5  10.0     S   1.67  24.0   SSE   55.2   58.8   55.5   53.4  29.804  0.00  0.00     0     0.00      0     0.0  0.00   0.0   0.045   0.000   71.8    56   55.3   71.3  10.31  .0733    0.000   204    7    100.0   10 
 9/03/26  6:40a   58.6   58.6   58.5    93   56.6  11.0     S   1.83  22.0   SSE   54.7   58.9   55.0   53.0  29.803  0.00  0.00     0     0.00      0     0.0  0.00   0.0   0.044   0.000   71.9    56   55.3   71.4  10.31  .0733    0.000   202    7    100.0   10 
 9/03/26  6:50a   58.7   58.8   58.6    93   56.7  10.0     S   1.67  20.0     S   55.4   59.0   55.7   53.6  29.805  0.00  0.00     0     0.00      0     0.0  0.00   0.0   0.044   0.000   71.9    56   55.3   71.4  10.31  .0733    0.000   203    7    100.0   10 
 9/03/26  7:00a   58.7   58.8   58.6    93   56.7  13.0     S   2.17  20.0   SSE   53.8   59.0   54.1   52.4  29.805  0.00  0.00     9     0.13     14     0.0  0.00   0.0   0.044   0.000   71.9    56   55.3   71.4  10.31  .0733    0.001   203    7    100.0   10 
 9/03/26  7:10a   58.6   58.8   58.6    93   56.6  13.0     S   2.17  24.0     S   53.7   58.9   54.0   52.4  29.808  0.00  0.00    16     0.23     18     0.0  0.00   0.0   0.044   0.000   71.8    56   55.3   71.3  10.31  .0733    0.000   203    7    100.0   10 
 9/03/26  7:20a   58.4   58.6   58.4    94   56.7  15.0     S   2.50  28.0     S   52.7   58.7   53.0   52.0  29.806  0.04  2.73    11     0.16     16     0.0  0.00   0.0   0.046   0.000   71.8    56   55.3   71.3  10.31  .0733    0.000   200    7    100.0   10 
 9/03/26  7:30a   57.7   58.4   57.6    94   56.0  14.0     S   2.33  29.0     S   52.3   57.9   52.5   52.1  29.811  0.00  0.06    28     0.40     37     0.0  0.00   0.0   0.051   0.000   71.8    56   55.3   71.3  10.31  .0733    0.000   204    7    100.0   10 
 9/03/26  7:40a   57.5   57.7   57.4    93   55.5  11.0     S   1.83  26.0     S   53.5   57.7   53.7   53.8  29.810  0.00  0.00    41     0.59     46     0.0  0.00   0.0   0.052   0.000   71.8    56   55.3   71.3  10.31  .0733    0.000   202    7    100.0   10 
 9/03/26  7:50a   57.7   57.7   57.4    93   55.7   9.0     S   1.50  17.0     S   54.9   57.9   55.1   55.1  29.811  0.00  0.00    41     0.59     47     0.0  0.00   0.0   0.051   0.000   71.8    56   55.3   71.3  10.31  .0733    0.000   205    7    100.0   10 
 9/03/26  8:00a   57.3   57.7   57.2    93   55.3   6.0     S   1.00  17.0   SSE   56.4   57.5   56.6   55.9  29.807  0.01  0.00    28     0.40     33     0.0  0.00   0.0   0.053   0.000   71.8    56   55.3   71.3  10.31  .0733    0.001   203    7    100.0   10 
 9/03/26  8:10a   58.1   58.2   57.3    94   56.4   7.0     S   1.17  17.0   SSE   56.9   58.4   57.2   56.7  29.809  0.00  0.00    33     0.47     49     0.0  0.00   0.0   0.048   0.000   71.9    56   55.3   71.4  10.31  .0733    0.000   203    7    100.0   10 
 9/03/26  8:20a   58.8   58.8   58.2    93   56.8  14.0     S   2.33  25.0   SSE   53.6   59.1   53.9   54.3  29.810  0.00  0.00    57     0.82     67     0.0  0.00   0.0   0.043   0.000   71.9    56   55.3   71.4  10.31  .0733    0.000   205    7    100.0   10 
 9/03/26  8:30a   58.9   59.0   58.8    93   56.9  14.0     S   2.33  29.0     S   53.7   59.2   54.0   55.0  29.816  0.00  0.00    80     1.15    134     0.0  0.00   0.0   0.042   0.000   71.9    56   55.3   71.4  10.31  .0733    0.000   202    7    100.0   10 
 9/03/26  8:40a   58.8   58.9   58.7    92   56.5  15.0     S   2.50  29.0   SSE   53.2   59.1   53.5   55.2  29.816  0.00  0.00   111     1.59    127     0.0  0.00   0.0   0.043   0.000   71.9    56   55.3   71.4  10.31  .0733    0.000   202    7    100.0   10 
 9/03/26  8:50a   58.8   58.8   58.7    92   56.5  13.0     S   2.17  29.0   SSE   53.9   59.1   54.2   57.1  29.817  0.00  0.00   153     2.19    211     0.3  0.02   0.5   0.043   0.000   72.0    56   55.4   71.6  10.31  .0733    0.000   202    7    100.0   10 
 9/03/26  9:00a   58.7   58.8   58.7    92   56.4  13.0     S   2.17  21.0   SSE   53.8   59.0   54.1   57.8  29.816  0.00  0.00   190     2.72    229     0.5  0.04   0.6   0.044   0.000   72.0    56   55.4   71.6  10.31  .0733    0.003   202    7    100.0   10 
 9/03/26  9:10a   58.7   58.8   58.6    92   56.4  10.0     S   1.67  20.0   SSE   55.4   59.0   55.7   60.7  29.809  0.00  0.00   237     3.40    308     0.8  0.06   1.0   0.044   0.000   72.1    56   55.5   71.7  10.31  .0732    0.000   204    7    100.0   10 
 9/03/26  9:20a   58.8   58.8   58.6    91   56.2   9.0     S   1.50  17.0    SW   56.3   59.0   56.5   62.4  29.805  0.00  0.00   275     3.94    330     0.9  0.06   1.0   0.043   0.000   72.2    56   55.6   71.9  10.31  .0732    0.000   201    7    100.0   10 
 9/03/26  9:30a   58.9   58.9   58.7    91   56.3   8.0     S   1.33  16.0   SSE   57.2   59.1   57.4   63.0  29.803  0.00  0.00   258     3.70    267     1.0  0.07   1.1   0.042   0.000   72.2    56   55.6   71.9  10.31  .0732    0.000   202    7    100.0   10 
 9/03/26  9:40a   59.0   59.1   58.8    90   56.1   7.0     S   1.17  16.0     S   58.0   59.2   58.2   63.4  29.806  0.00  0.00   244     3.50    299     0.9  0.06   1.1   0.042   0.000   72.2    56   55.6   71.9  10.31  .0732    0.000   204    7    100.0   10 
 9/03/26  9:50a   58.4   59.1   58.4    90   55.5  10.0     S   1.67  19.0   SSE   55.1   58.5   55.2   55.1  29.815  0.01  0.00    61     0.87     95     0.1  0.01   0.5   0.046   0.000   72.2    56   55.6   71.9  10.31  .0732    0.000   202    7    100.0   10 
 9/03/26 10:00a   57.3   58.4   57.2    91   54.7  15.0     S   2.50  28.0     S   51.5   57.4   51.6   51.8  29.816  0.01  0.13    75     1.08    104     0.3  0.02   0.5   0.053   0.000   72.1    56   55.5   71.7  10.31  .0733    0.005   203    7    100.0   10 
 9/03/26 10:10a   56.2   57.4   56.2    92   53.9  12.0     S   2.00  22.0   SSE   51.4   56.3   51.5   51.1  29.816  0.01  0.07    53     0.76     56     0.0  0.00   0.0   0.061   0.000   72.1    56   55.5   71.7  10.31  .0733    0.000   202    7    100.0   10 
 9/03/26 10:20a   55.5   56.4   55.5    91   52.9  11.0     S   1.83  22.0   SSE   51.2   55.6   51.3   50.8  29.820  0.01  0.07    51     0.73     63     0.0  0.00   0.0   0.066   0.000   72.1    56   55.5   71.7  10.31  .0733    0.000   204    7    100.0   10 
 9/03/26 10:30a   55.6   55.6   55.4    92   53.3   9.0     S   1.50  17.0     S   52.5   55.7   52.6   52.2  29.823  0.02  0.13    56     0.80     67     0.2  0.01   0.5   0.065   0.000   72.2    56   55.6   71.9  10.31  .0733    0.000   203    7    100.0   10 
 9/03/26 10:40a   55.0   55.7   55.0    92   52.7   8.0     S   1.33  21.0     S   52.5   55.1   52.6   51.9  29.821  0.00  0.05    48     0.69     51     0.0  0.00   0.0   0.069   0.000   72.2    56   55.6   71.9  10.31  .0733    0.000   201    7    100.0   10 
 9/03/26 10:50a   54.5   55.0   54.5    91   51.9   8.0     S   1.33  20.0   SSE   51.9   54.6   52.0   51.1  29.823  0.02  0.15    43     0.62     76     0.1  0.01   0.5   0.073   0.000   72.2    56   55.6   71.9  10.31  .0733    0.000   202    7    100.0   10 
 9/03/26 11:00a   54.6   54.7   54.5    91   52.0   7.0     S   1.17  15.0   SSE   52.7   54.7   52.8   52.8  29.823  0.00  0.05    75     1.08     88     0.5  0.04   0.6   0.072   0.000   72.1    56   55.5   71.7  10.31  .0733    0.002   204    7    100.0   10 
 9/03/26 11:10a   55.0   55.0   54.6    92   52.7   8.0     S   1.33  17.0   SSE   52.5   55.1   52.6   51.7  29.827  0.04  0.36    43     0.62     49     0.0  0.00   0.0   0.069   0.000   72.1    56   55.5   71.7  10.31  .0733    0.000   202    7    100.0   10 
 9/03/26 11:20a   54.7   55.0   54.7    92   52.4   4.0     S   0.67  10.0     S   54.3   54.8   54.4   54.1  29.823  0.01  0.19    69     0.99     84     0.3  0.02   0.6   0.072   0.000   72.1    56   55.5   71.7  10.31  .0733    0.000   201    7    100.0   10 
 9/03/26 11:30a   55.0   55.0   54.7    92   52.7   3.0   SSE   0.50  10.0   ESE   55.0   55.1   55.1   53.9  29.823  0.03  0.40    32     0.46     46     0.0  0.00   0.0   0.069   0.000   72.0    56   55.4   71.6  10.31  .0733    0.000   203    7    100.0   10 
 9/03/26 11:40a   55.9   55.9   55.0    93   53.9   6.0     S   1.00  14.0     S   54.7   56.1   54.9   54.0  29.825  0.05  1.22    42     0.60     47     0.0  0.00   0.0   0.063   0.000   72.0    56   55.4   71.6  10.31  .0733    0.000   201    7    100.0   10 
 9/03/26 11:50a   56.0   56.1   55.9    93   54.0  10.0     S   1.67  22.0   SSE   52.3   56.2   52.5   51.3  29.829  0.07  0.89    21     0.30     28     0.0  0.00   0.0   0.063   0.000   71.9    56   55.3   71.4  10.31  .0733    0.000   203    7    100.0   10 
 9/03/26 12:00p   56.0   56.0   55.8    94   54.3   9.0     S   1.50  21.0   SSE   53.0   56.2   53.2   52.1  29.819  0.03  0.22    29     0.42     44     0.0  0.00   0.0   0.063   0.000   71.9    56   55.3   71.4  10.31  .0733    0.001   202    7    100.0   10 
 9/03/26 12:10p   55.5   56.1   55.5    93   53.5   6.0     S   1.00  15.0    SE   54.2   55.7   54.4   54.7  29.814  0.01  0.19    94     1.35    153     0.7  0.05   1.3   0.066   0.000   71.8    56   55.3   71.3  10.31  .0733    0.000   202    7    100.0   10 
 9/03/26 12:20p   56.3   56.3   55.5    93   54.3   6.0     S   1.00  12.0     S   55.2   56.5   55.4   58.8  29.810  0.00  0.04   215     3.08    269     1.7  0.12   2.0   0.060   0.000   71.9    56   55.3   71.4  10.31  .0733    0.000   203    7    100.0   10 
 9/03/26 12:30p   57.4   57.4   56.4    93   55.4   6.0     S   1.00  12.0     S   56.5   57.6   56.7   60.6  29.805  0.00  0.00   238     3.41    320     2.0  0.14   2.8   0.053   0.000   72.0    56   55.4   71.6  10.31  .0732    0.000   204    7    100.0   10 
 9/03/26 12:40p   58.5   58.5   57.4    93   56.5  10.0     S   1.67  21.0     S   55.2   58.8   55.5   63.0  29.809  0.00  0.00   485     6.95    659     3.3  0.24   4.2   0.045   0.000   72.1    56   55.5   71.7  10.31  .0732    0.000   203    7    100.0   10 
 9/03/26 12:50p   58.7   58.7   58.5    93   56.7  11.0     S   1.83  20.0   SSE   54.8   59.0   55.1   61.8  29.806  0.00  0.00   448     6.42    538     3.2  0.23   4.4   0.044   0.000   72.1    56   55.5   71.7  10.31  .0732    0.000   204    7    100.0   10 
 9/03/26  1:00p   58.3   58.7   58.2    92   56.0  11.0     S   1.83  27.0   SSE   54.4   58.5   54.6   61.8  29.805  0.00  0.00   488     7.00    650     3.3  0.24   4.4   0.047   0.000   72.2    56   55.6   71.9  10.31  .0732    0.008   201    7    100.0   10 
 9/03/26  1:10p   58.5   58.5   58.2    91   55.9   9.0     S   1.50  18.0     S   55.9   58.7   56.1   57.8  29.805  0.03  0.80   155     2.22    267     1.3  0.09   2.1   0.045   0.000   72.2    56   55.6   71.9  10.31  .0732    0.000   203    7    100.0   10 
 9/03/26  1:20p   58.1   58.5   58.1    92   55.8  11.0     S   1.83  18.0   SSE   54.1   58.3   54.3   55.5  29.810  0.01  0.19   135     1.94    155     1.2  0.09   1.3   0.048   0.000   72.2    56   55.6   71.9  10.31  .0732    0.000   204    7    100.0   10 
 9/03/26  1:30p   58.0   58.1   57.8    93   56.0  11.0     S   1.83  22.0    SW   54.0   58.2   54.2   57.5  29.803  0.01  0.06   238     3.41    267     1.8  0.13   2.0   0.049   0.000   72.2    56   55.6   71.9  10.31  .0732    0.000   204    7    100.0   10 
 9/03/26  1:40p   58.0   58.1   57.9    93   56.0   8.0     S   1.33  18.0     S   56.1   58.2   56.3   60.4  29.798  0.00  0.05   259     3.71    302     2.0  0.14   2.2   0.049   0.000   72.3    56   55.7   72.0  10.30  .0732    0.000   200    7    100.0   10 
 9/03/26  1:50p   58.9   58.9   58.0    93   56.9   8.0     S   1.33  17.0     S   57.2   59.2   57.5   64.3  29.797  0.00  0.00   401     5.75    469     3.2  0.23   5.2   0.042   0.000   72.4    56   55.8   72.2  10.30  .0732    0.000   203    7    100.0   10 
 9/03/26  2:00p   59.7   59.7   58.9    92   57.4   9.0     S   1.50  17.0     S   57.3   60.0   57.6   67.5  29.798  0.00  0.00   673     9.65    858     4.7  0.34   5.4   0.037   0.000   72.5    56   55.9   72.3  10.30  .0731    0.007   203    7    100.0   10 
 9/03/26  2:10p   59.6   59.8   59.6    91   57.0   9.0     S   1.50  17.0   SSE   57.2   59.9   57.5   63.3  29.800  0.00  0.00   352     5.05    378     2.7  0.19   3.0   0.038   0.000   72.5    56   55.9   72.3  10.30  .0731    0.000   204    7    100.0   10 
 9/03/26  2:20p   59.4   59.7   59.3    91   56.8  12.0     S   2.00  26.0   SSE   55.1   59.7   55.4   60.4  29.803  0.00  0.00   340     4.87    381     2.5  0.18   2.9   0.039   0.000   72.6    56   56.0   72.5  10.30  .0731    0.000   201    7    100.0   10 
 9/03/26  2:30p   59.1   59.5   59.0    92   56.8  10.0     S   1.67  20.0     S   55.9   59.4   56.2   61.0  29.802  0.00  0.00   310     4.44    367     2.3  0.16   2.6   0.041   0.000   72.6    56   56.0   72.5  10.30  .0731    0.000   202    7    100.0   10 
 9/03/26  2:40p   58.9   59.1   58.8    91   56.3  11.0     S   1.83  23.0   SSE   55.1   59.1   55.3   60.4  29.801  0.00  0.00   334     4.79    406     2.3  0.16   2.6   0.042   0.000   72.6    56   56.0   72.5  10.30  .0731    0.000   202    7    100.0   10 
 9/03/26  2:50p   58.9   59.1   58.9    91   56.3  11.0     S   1.83  18.0   SSE   55.1   59.1   55.3   61.4  29.797  0.00  0.00   393     5.63    499     2.5  0.18   2.8   0.042   0.000   72.7    56   56.1   72.6  10.30  .0731    0.000   203    7    100.0   10 
 9/03/26  3:00p   59.1   59.1   58.9    90   56.2  10.0     S   1.67  19.0   SSE   55.9   59.3   56.1   61.0  29.794  0.00  0.00   310     4.44    396     2.0  0.14   2.4   0.041   0.000   72.7    56   56.1   72.6  10.30  .0731    0.008   203    7    100.0   10 
 9/03/26  3:10p   59.1   59.3   59.0    91   56.5  10.0     S   1.67  21.0   SSW   55.9   59.3   56.1   60.7  29.797  0.00  0.00   286     4.10    330     1.9  0.14   2.2   0.041   0.000   72.7    56   56.1   72.6  10.30  .0731    0.000   203    7    100.0   10 
 9/03/26  3:20p   59.4   59.4   59.0    90   56.5  10.0     S   1.67  19.0     S   56.3   59.6   56.5   63.4  29.793  0.00  0.00   414     5.93    638     2.5  0.18   3.1   0.039   0.000   72.8    56   56.2   72.8  10.29  .0731    0.000   203    7    100.0   10 
 9/03/26  3:30p   59.5   59.7   59.4    89   56.3  12.0     S   2.00  22.0   SSE   55.2   59.7   55.4   60.2  29.794  0.00  0.00   308     4.42    378     2.0  0.14   2.3   0.038   0.000   72.9    56   56.3   72.9  10.29  .0731    0.000   204    7    100.0   10 
 9/03/26  3:40p   59.3   59.6   59.3    89   56.1  12.0     S   2.00  23.0   SSE   55.0   59.5   55.2   58.9  29.798  0.00  0.00   244     3.50    294     1.7  0.12   1.9   0.040   0.000   72.9    56   56.3   72.9  10.29  .0731    0.000   200    7    100.0   10 
 9/03/26  3:50p   59.1   59.4   59.1    89   55.9  15.0     S   2.50  25.0   SSE   53.5   59.3   53.7   56.2  29.791  0.00  0.00   197     2.82    265     1.2  0.09   1.6   0.041   0.000   72.9    56   56.3   72.9  10.29  .0731    0.000   202    7    100.0   10 
 9/03/26  4:00p   58.8   59.1   58.7    89   55.6  12.0     S   2.00  24.0   SSE   54.4   58.9   54.5   57.1  29.796  0.00  0.00   185     2.65    197     1.1  0.08   1.1   0.043   0.000   73.0    56   56.4   73.1  10.29  .0731    0.007   204    7    100.0   10 
 9/03/26  4:10p   58.6   58.8   58.6    89   55.4  12.0     S   2.00  18.0   SSE   54.2   58.7   54.3   56.5  29.795  0.00  0.00   161     2.31    176     0.9  0.06   1.0   0.044   0.000   73.0    56   56.4   73.1  10.29  .0730    0.000   202    7    100.0   10 
 9/03/26  4:20p   58.7   58.7   58.6    89   55.5   9.0     S   1.50  18.0     S   56.1   58.8   56.2   57.2  29.793  0.00  0.00   104     1.49    120     0.6  0.04   0.7   0.044   0.000   72.9    56   56.3   72.9  10.29  .0731    0.000   203    7    100.0   10 
 9/03/26  4:30p   58.9   59.0   58.6    89   55.7  10.0     S   1.67  21.0     S   55.7   59.1   55.9   57.1  29.788  0.00  0.00   109     1.56    116     0.6  0.04   0.6   0.042   0.000   72.9    56   56.3   72.9  10.29  .0730    0.000   201    7    100.0   10 
 9/03/26  4:40p   59.1   59.1   58.9    89   55.9   7.0     S   1.17  17.0   SSE   58.1   59.3   58.3   59.4  29.784  0.00  0.00    97     1.39    111     0.3  0.02   0.6   0.041   0.000   72.9    56   56.3   72.9  10.29  .0730    0.000   204    7    100.0   10 
 9/03/26  4:50p   59.1   59.1   58.9    89   55.9   9.0     S   1.50  21.0     S   56.6   59.3   56.8   58.3  29.785  0.00  0.00   112     1.61    134     0.4  0.03   0.6   0.041   0.000   72.9    56   56.3   72.9  10.29  .0730    0.000   201    7    100.0   10 
 9/03/26  5:00p   58.7   59.1   58.7    89   55.5   9.0     S   1.50  28.0     S   56.1   58.8   56.2   56.2  29.785  0.00  0.00    58     0.83     81     0.0  0.00   0.0   0.044   0.000   72.9    56   56.3   72.9  10.29  .0730    0.003   203    7    100.0   10 
 9/03/26  5:10p   58.5   58.6   58.4    88   55.0  10.0     S   1.67  26.0   SSE   55.2   58.6   55.3   55.3  29.780  0.00  0.00    57     0.82     65     0.0  0.00   0.0   0.045   0.000   72.8    56   56.2   72.8  10.29  .0730    0.000   204    7    100.0   10 
 9/03/26  5:20p   58.7   58.8   58.5    88   55.2  10.0     S   1.67  17.0   SSE   55.4   58.8   55.5   57.2  29.781  0.00  0.00   109     1.56    146     0.3  0.02   0.6   0.044   0.000   72.8    56   56.2   72.8  10.29  .0730    0.000   204    7    100.0   10 
 9/03/26  5:30p   58.1   58.7   58.1    90   55.2   7.0     S   1.17  14.0   SSE   56.9   58.2   57.0   58.7  29.778  0.06  2.04   101     1.45    135     0.1  0.01   0.5   0.048   0.000   72.8    56   56.2   72.8  10.29  .0730    0.000   204    7    100.0   10 
 9/03/26  5:40p   58.0   58.2   58.0    90   55.1   7.0     S   1.17  13.0   SSE   56.8   58.1   56.9   57.9  29.775  0.00  0.04    78     1.12    113     0.0  0.00   0.0   0.049   0.000   72.8    56   56.2   72.8  10.29  .0730    0.000   202    7    100.0   10 
 9/03/26  5:50p   58.1   58.1   57.9    90   55.2   7.0     S   1.17  15.0     S   56.9   58.2   57.0   56.6  29.777  0.01  0.04    38     0.54     46     0.0  0.00   0.0   0.048   0.000   72.7    56   56.1   72.6  10.30  .0731    0.000   203    7    100.0   10 
 9/03/26  6:00p   58.1   58.2   58.0    90   55.2   7.0     S   1.17  16.0   SSE   56.9   58.2   57.0   57.1  29.774  0.00  0.00    49     0.70     76     0.0  0.00   0.0   0.048   0.000   72.7    56   56.1   72.6  10.30  .0730    0.002   203    7    100.0   10 
 9/03/26  6:10p   58.5   58.5   58.0    90   55.6   9.0     S   1.50  24.0    SE   55.9   58.7   56.1   56.8  29.771  0.00  0.00    65     0.93     90     0.0  0.00   0.0   0.045   0.000   72.6    56   56.0   72.5  10.30  .0731    0.000   202    7    100.0   10 
 9/03/26  6:20p   58.8   58.8   58.6    90   55.9  10.0     S   1.67  21.0     S   55.6   59.0   55.8   55.1  29.773  0.01  0.00    26     0.37     37     0.0  0.00   0.0   0.043   0.000   72.6    56   56.0   72.5  10.30  .0731    0.000   200    7    100.0   10 
 9/03/26  6:30p   58.5   58.8   58.4    91   55.9  10.0     S   1.67  18.0     S   55.2   58.7   55.4   54.2  29.773  0.02  0.17    12     0.17     14     0.0  0.00   0.0   0.045   0.000   72.5    56   55.9   72.3  10.30  .0731    0.000   200    7    100.0   10 
 9/03/26  6:40p   58.6   58.7   58.4    91   56.0  10.0     S   1.67  23.0     S   55.3   58.8   55.5   55.1  29.770  0.00  0.05    33     0.47     53     0.0  0.00   0.0   0.044   0.000   72.5    56   55.9   72.3  10.30  .0731    0.000   204    7    100.0   10 
 9/03/26  6:50p   59.0   59.1   58.6    90   56.1  10.0     S   1.67  25.0     S   55.8   59.2   56.0   56.5  29.769  0.00  0.00    50     0.72     56     0.0  0.00   0.0   0.042   0.000   72.5    56   55.9   72.3  10.30  .0731    0.000   202    7    100.0   10 
 9/03/26  7:00p   58.8   59.0   58.8    91   56.2  11.0     S   1.83  19.0     S   55.0   59.0   55.2   54.8  29.774  0.00  0.00    27     0.39     44     0.0  0.00   0.0   0.043   0.000   72.5    56   55.9   72.3  10.30  .0731    0.001   199    7    100.0   10 
 9/03/26  7:10p   58.7   58.8   58.6    91   56.1  12.0     S   2.00  22.0     S   54.3   58.9   54.5   53.9  29.773  0.00  0.00    22     0.32     37     0.0  0.00   0.0   0.044   0.000   72.4    56   55.8   72.2  10.30  .0731    0.000   204    7    100.0   10 
 9/03/26  7:20p   58.4   58.7   58.4    91   55.8  13.0     S   2.17  25.0   SSE   53.4   58.6   53.6   52.3  29.771  0.01  0.00    30     0.43     39     0.0  0.00   0.0   0.046   0.000   72.4    56   55.8   72.2  10.30  .0731    0.000   200    7    100.0   10 
 9/03/26  7:30p   57.7   58.4   57.7    92   55.4  14.0     S   2.33  27.0   SSE   52.3   57.9   52.5   50.9  29.772  0.01  0.07    10     0.14     18     0.0  0.00   0.0   0.051   0.000   72.4    56   55.8   72.2  10.30  .0731    0.000   203    7    100.0   10 
 9/03/26  7:40p   57.4   57.7   57.4    92   55.1  11.0     S   1.83  24.0     S   53.3   57.6   53.5   51.5  29.767  0.03  0.61     2     0.03      5     0.0  0.00   0.0   0.053   0.000   72.3    56   55.7   72.0  10.30  .0731    0.000   203    7    100.0   10 
 9/03/26  7:50p   57.2   57.4   57.1    93   55.2   9.0     S   1.50  19.0     S   54.3   57.4   54.5   52.4  29.766  0.02  0.10     0     0.00      0     0.0  0.00   0.0   0.054   0.000   72.3    56   55.7   72.0  10.30  .0731    0.000   202    7    100.0   10 
 9/03/26  8:00p   57.5   57.5   57.2    93   55.5   8.0     S   1.33  18.0   SSE   55.5   57.7   55.7   53.5  29.764  0.00  0.05     0     0.00      0     0.0  0.00   0.0   0.052   0.000   72.3    56   55.7   72.0  10.30  .0731    0.001   204    7    100.0   10 
 9/03/26  8:10p   57.6   57.7   57.5    93   55.6  10.0     S   1.67  16.0     S   54.2   57.8   54.4   52.4  29.765  0.01  0.05     0     0.00      0     0.0  0.00   0.0   0.051   0.000   72.2    56   55.6   71.9  10.31  .0731    0.000   202    7    100.0   10 
 9/03/26  8:20p   57.3   57.6   57.3    93   55.3  11.0     S   1.83  21.0   SSE   53.2   57.5   53.4   51.4  29.767  0.02  0.11     0     0.00      0     0.0  0.00   0.0   0.053   0.000   72.2    56   55.6   71.9  10.31  .0731    0.000   204    7    100.0   10 
 9/03/26  8:30p   57.0   57.3   57.0    93   55.0   7.0     S   1.17  14.0     S   55.6   57.2   55.8   53.5  29.768  0.03  0.18     0     0.00      0     0.0  0.00   0.0   0.056   0.000   72.1    56   55.5   71.7  10.31  .0731    0.000   201    7    100.0   10 
 9/03/26  8:40p   57.3   57.3   57.0    93   55.3   7.0     S   1.17  18.0     S   56.0   57.5   56.2   53.9  29.768  0.04  0.44     0     0.00      0     0.0  0.00   0.0   0.053   0.000   72.1    56   55.5   71.7  10.31  .0731    0.000   202    7    100.0   10 
 9/03/26  8:50p   57.0   57.3   57.0    93   55.0   5.0     S   0.83  13.0   SSE   56.4   57.2   56.6   54.3  29.765  0.02  0.31     0     0.00      0     0.0  0.00   0.0   0.056   0.000   72.1    56   55.5   71.7  10.31  .0731    0.000   201    7    100.0   10 
 9/03/26  9:00p   56.8   57.0   56.8    93   54.8   5.0     S   0.83  16.0   SSE   56.2   57.0   56.4   54.1  29.764  0.03  0.15     0     0.00      0     0.0  0.00   0.0   0.057   0.000   72.0    56   55.4   71.6  10.31  .0731    0.000   203    7    100.0   10 
 9/03/26  9:10p   56.6   56.8   56.5    93   54.6   3.0     S   0.50  10.0     S   56.6   56.8   56.8   54.5  29.760  0.02  0.20     0     0.00      0     0.0  0.00   0.0   0.058   0.000   72.0    56   55.4   71.6  10.31  .0731    0.000   204    7    100.0   10 
 9/03/26  9:20p   56.4   56.6   56.4    93   54.4   3.0     S   0.50  12.0   SSE   56.4   56.6   56.6   54.3  29.761  0.01  0.15     0     0.00      0     0.0  0.00   0.0   0.060   0.000   72.0    56   55.4   71.6  10.31  .0731    0.000   203    7    100.0   10 
 9/03/26  9:30p   56.4   56.5   56.4    93   54.4   2.0     S   0.33   9.0   ESE   56.4   56.6   56.6   54.3  29.760  0.00  0.05     0     0.00      0     0.0  0.00   0.0   0.060   0.000   71.9    56   55.3   71.4  10.31  .0732    0.000   204    7    100.0   10 
 9/03/26  9:40p   56.4   56.4   56.3    93   54.4   3.0     S   0.50  10.0   SSE   56.4   56.6   56.6   54.3  29.760  0.02  0.22     0     0.00      0     0.0  0.00   0.0   0.060   0.000   71.8    56   55.3   71.3  10.31  .0732    0.000   203    7    100.0   10 
 9/03/26  9:50p   56.3   56.4   56.3    93   54.3   2.0     S   0.33  11.0     S   56.3   56.5   56.5   54.2  29.762  0.04  0.36     0     0.00      0     0.0  0.00   0.0   0.060   0.000   71.9    56   55.3   71.4  10.31  .0732    0.000   202    7    100.0   10 
 9/03/26 10:00p   56.1   56.3   56.1    93   54.1   1.0   SSE   0.17   7.0   ESE   56.1   56.3   56.3   54.0  29.760  0.05  0.46     0     0.00      0     0.0  0.00   0.0   0.062   0.000   71.8    56   55.3   71.3  10.31  .0732    0.000   201    7    100.0   10 
 9/03/26 10:10p   56.0   56.1   56.0    94   54.3   1.0   ESE   0.17   9.0   SSE   56.0   56.2   56.2   53.9  29.753  0.02  0.37     0     0.00      0     0.0  0.00   0.0   0.063   0.000   71.8    56   55.3   71.3  10.31  .0732    0.000   203    7    100.0   10 
 9/03/26 10:20p   55.9   56.0   55.9    94   54.2   2.0     E   0.33   9.0   ESE   55.9   56.1   56.1   53.8  29.744  0.00  0.04     0     0.00      0     0.0  0.00   0.0   0.063   0.000   71.8    56   55.3   71.3  10.31  .0731    0.000   202    7    100.0   10 
 9/03/26 10:30p   55.9   56.0   55.9    94   54.2   3.0     E   0.50   9.0   ESE   55.9   56.1   56.1   53.8  29.746  0.02  0.08     0     0.00      0     0.0  0.00   0.0   0.063   0.000   71.7    56   55.2   71.1  10.32  .0732    0.000   204    7    100.0   10 
 9/03/26 10:40p   55.9   55.9   55.9    94   54.2   2.0     E   0.33  10.0   ENE   55.9   56.1   56.1   53.8  29.737  0.01  0.08     0     0.00      0     0.0  0.00   0.0   0.063   0.000   71.7    56   55.2   71.1  10.32  .0731    0.000   202    7    100.0   10 
 9/03/26 10:50p   55.9   55.9   55.8    94   54.2   2.0   ENE   0.33  11.0   ENE   55.9   56.1   56.1   53.8  29.747  0.08  1.29     0     0.00      0     0.0  0.00   0.0   0.063   0.000   71.7    56   55.2   71.1  10.32  .0732    0.000   204    7    100.0   10 
 9/03/26 11:00p   55.8   55.9   55.7    95   54.4   2.0     E   0.33   9.0   SSE   55.8   56.0   56.0   53.7  29.749  0.15  1.41     0     0.00      0     0.0  0.00   0.0   0.064   0.000   71.7    56   55.2   71.1  10.32  .0732    0.000   201    7    100.0   10 
 9/03/26 11:10p   55.6   55.7   55.6    95   54.2   2.0     E   0.33  10.0     E   55.6   55.8   55.8   53.5  29.744  0.05  0.88     0     0.00      0     0.0  0.00   0.0   0.065   0.000   71.7    56   55.2   71.1  10.32  .0732    0.000   201    7    100.0   10 
 9/03/26 11:20p   55.6   55.7   55.6    95   54.2   3.0     E   0.50   7.0     E   55.6   55.8   55.8   53.5  29.743  0.01  0.18     0     0.00      0     0.0  0.00   0.0   0.065   0.000   71.6    56   55.1   71.0  10.32  .0732    0.000   201    7    100.0   10 
 9/03/26 11:30p   55.6   55.6   55.5    95   54.2   2.0     S   0.33   9.0     E   55.6   55.8   55.8   53.5  29.749  0.01  0.08     0     0.00      0     0.0  0.00   0.0   0.065   0.000   71.6    56   55.1   71.0  10.32  .0732    0.000   202    7    100.0   10 
 9/03/26 11:40p   55.7   55.7   55.5    95   54.3   1.0     S   0.17   9.0     S   55.7   55.9   55.9   53.6  29.745  0.00  0.04     0     0.00      0     0.0  0.00   0.0   0.065   0.000   71.6    56   55.1   71.0  10.32  .0732    0.000   204    7    100.0   10 
 9/03/26 11:50p   55.7   55.8   55.6    95   54.3   1.0     S   0.17   9.0   SSE   55.7   55.9   55.9   53.6  29.747  0.00  0.00     0     0.00      0     0.0  0.00   0.0   0.065   0.000   71.6    56   55.1   71.0  10.32  .0732    0.000   203    7    100.0   10 
 9/04/26 12:00a   55.8   55.8   55.7    95   54.4   1.0     S   0.17  11.0     E   55.8   56.0   56.0   53.7  29.751  0.00  0.00     0     0.00      0     0.0  0.00   0.0   0.064   0.000   71.6    56   55.1   71.0  10.32  .0732    0.000   204    7    100.0   10 
 9/04/26 12:10a   55.8   55.8   55.7    95   54.4   1.0     S   0.17   4.0     S   55.8   56.0   56.0   53.7  29.759  0.02  0.35     0     0.00      0     0.0  0.00   0.0   0.064   0.000   71.5    56   55.0   70.8  10.32  .0732    0.000   202    7    100.0   10 
 9/04/26 12:20a   55.8   55.8   55.7    95   54.4   1.0     S   0.17   6.0   ESE   55.8   56.0   56.0   53.7  29.758  0.01  0.10     0     0.00      0     0.0  0.00   0.0   0.064   0.000   71.5    56   55.0   70.8  10.32  .0732    0.000   203    7    100.0   10 
 9/04/26 12:30a   55.6   55.8   55.6    95   54.2   1.0   ESE   0.17   6.0   ESE   55.6   55.8   55.8   53.5  29.757  0.00  0.00     0     0.00      0     0.0  0.00   0.0   0.065   0.000   71.5    56   55.0   70.8  10.32  .0732    0.000   202    7    100.0   10 
 9/04/26 12:40a   55.5   55.7   55.5    96   54.4   1.0   SSE   0.17   6.0     S   55.5   55.7   55.7   53.4  29.754  0.00  0.00     0     0.00      0     0.0  0.00   0.0   0.066   0.000   71.5    56   55.0   70.8  10.32  .0732    0.000   204    7    100.0   10 
 9/04/26 12:50a   55.4   55.5   55.4    96   54.3   1.0   ESE   0.17   8.0   ESE   55.4   55.6   55.6   53.3  29.754  0.00  0.00     0     0.00      0     0.0  0.00   0.0   0.067   0.000   71.4    56   54.9   70.7  10.32  .0732    0.000   204    7    100.0   10 
 9/04/26  1:00a   55.3   55.4   55.2    96   54.2   2.0     E   0.33   7.0     E   55.3   55.5   55.5   53.2  29.753  0.00  0.00     0     0.00      0     0.0  0.00   0.0   0.067   0.000   71.4    56   54.9   70.7  10.32  .0732    0.000   203    7    100.0   10 
 9/04/26  1:10a   55.2   55.3   55.1    96   54.1   1.0     E   0.17   6.0     E   55.2   55.4   55.4   53.1  29.760  0.00  0.00     0     0.00      0     0.0  0.00   0.0   0.068   0.000   71.4    56   54.9   70.7  10.32  .0732    0.000   202    7    100.0   10 
 9/04/26  1:20a   55.3   55.4   55.2    96   54.2   2.0     E   0.33   8.0     E   55.3   55.5   55.5   53.2  29.760  0.00  0.00     0     0.00      0     0.0  0.00   0.0   0.067   0.000   71.5    56   55.0   70.8  10.32  .0732    0.000   203    7    100.0   10 
 9/04/26  1:30a   55.4   55.4   55.3    96   54.3   2.0     E   0.33  10.0     E   55.4   55.6   55.6   53.3  29.761  0.01  0.00     0     0.00      0     0.0  0.00   0.0   0.067   0.000   71.5    56   55.0   70.8  10.32  .0732    0.000   203    7    100.0   10 
 9/04/26  1:40a   55.3   55.4   55.3    96   54.2   2.0     E   0.33   6.0   ENE   55.3   55.5   55.5   53.2  29.764  0.01  0.04     0     0.00      0     0.0  0.00   0.0   0.067   0.000   71.5    56   55.0   70.8  10.32  .0732    0.000   202    7    100.0   10 
 9/04/26  1:50a   55.3   55.4   55.3    96   54.2   2.0     E   0.33  10.0   ESE   55.3   55.5   55.5   53.2  29.763  0.00  0.04     0     0.00      0     0.0  0.00   0.0   0.067   0.000   71.4    56   54.9   70.7  10.32  .0732    0.000   203    7    100.0   10 
 9/04/26  2:00a   55.3   55.4   55.2    96   54.2   2.0     E   0.33  10.0   ESE   55.3   55.5   55.5   53.2  29.760  0.00  0.00     0     0.00      0     0.0  0.00   0.0   0.067   0.000   71.4    56   54.9   70.7  10.32  .0732    0.000   202    7    100.0   10 
 9/04/26  2:10a   55.2   55.3   55.2    96   54.1   2.0     E   0.33   8.0     E   55.2   55.4   55.4   53.1  29.760  0.00  0.00     0     0.00      0     0.0  0.00   0.0   0.068   0.000   71.4    56   54.9   70.7  10.32  .0732    0.000   204    7    100.0   10 
 9/04/26  2:20a   55.3   55.3   55.2    96   54.2   2.0   SSW   0.33   7.0     E   55.3   55.5   55.5   53.2  29.758  0.00  0.00     0     0.00      0     0.0  0.00   0.0   0.067   0.000   71.4    56   54.9   70.7  10.32  .0732    0.000   204    7    100.0   10 
 9/04/26  2:30a   55.4   55.4   55.3    96   54.3   1.0     E   0.17  11.0   ESE   55.4   55.6   55.6   53.3  29.760  0.03  0.32     0     0.00      0     0.0  0.00   0.0   0.067   0.000   71.3    56   54.8   70.5  10.32  .0733    0.000   202    7    100.0   10 
 9/04/26  2:40a   55.3   55.4   55.3    96   54.2   2.0     E   0.33   8.0     E   55.3   55.5   55.5   53.2  29.754  0.06  1.01     0     0.00      0     0.0  0.00   0.0   0.067   0.000   71.3    56   54.8   70.5  10.32  .0732    0.000   201    7    100.0   10 
 9/04/26  2:50a   55.2   55.3   55.2    96   54.1   2.0     E   0.33   6.0    NE   55.2   55.4   55.4   53.1  29.752  0.02  0.29     0     0.00      0     0.0  0.00   0.0   0.068   0.000   71.3    56   54.8   70.5  10.32  .0732    0.000   203    7    100.0   10 
 9/04/26  3:00a   55.2   55.3   55.2    96   54.1   2.0     E   0.33   6.0   ESE   55.2   55.4   55.4   53.1  29.750  0.00  0.04     0     0.00      0     0.0  0.00   0.0   0.068   0.000   71.3    56   54.8   70.5  10.32  .0732    0.000   202    7    100.0   10 
 9/04/26  3:10a   55.2   55.3   55.2    96   54.1   3.0     E   0.50  10.0     E   55.2   55.4   55.4   53.1  29.746  0.01  0.04     0     0.00      0     0.0  0.00   0.0   0.068   0.000   71.3    56   54.8   70.5  10.32  .0732    0.000   200    7    100.0   10 
 9/04/26  3:20a   55.3   55.3   55.2    96   54.2   2.0     E   0.33   9.0   ENE   55.3   55.5   55.5   53.2  29.749  0.00  0.00     0     0.00      0     0.0  0.00   0.0   0.067   0.000   71.2    56   54.7   70.4  10.33  .0732    0.000   202    7    100.0   10 
 9/04/26  3:30a   55.3   55.3   55.2    97   54.5   3.0     E   0.50   9.0   ENE   55.3   55.6   55.6   53.3  29.751  0.02  0.18     0     0.00      0     0.0  0.00   0.0   0.067   0.000   71.2    56   54.7   70.4  10.33  .0733    0.000   205    7    100.0   10 
 9/04/26  3:40a   55.2   55.3   55.2    97   54.4   2.0     E   0.33   7.0     E   55.2   55.5   55.5   53.2  29.753  0.06  1.93     0     0.00      0     0.0  0.00   0.0   0.068   0.000   71.2    56   54.7   70.4  10.33  .0733    0.000   203    7    100.0   10 
 9/04/26  3:50a   55.2   55.3   55.1    97   54.4   5.0     E   0.83  11.0   ENE   54.3   55.5   54.6   52.3  29.742  0.10  2.31     0     0.00      0     0.0  0.00   0.0   0.068   0.000   71.2    56   54.7   70.4  10.33  .0732    0.000   203    7    100.0   10 
 9/04/26  4:00a   55.2   55.2   55.1    97   54.4   4.0     E   0.67  11.0   ENE   54.8   55.5   55.1   52.8  29.749  0.03  0.64     0     0.00      0     0.0  0.00   0.0   0.068   0.000   71.2    56   54.7   70.4  10.33  .0732    0.000   201    7    100.0   10 
 9/04/26  4:10a   55.2   55.2   55.1    97   54.4   3.0     E   0.50  12.0     E   55.2   55.5   55.5   53.2  29.752  0.04  0.34     0     0.00      0     0.0  0.00   0.0   0.068   0.000   71.2    56   54.7   70.4  10.33  .0733    0.000   201    7    100.0   10 
 9/04/26  4:20a   55.3   55.3   55.2    97   54.5   4.0     E   0.67  11.0     E   55.0   55.6   55.3   53.0  29.753  0.06  0.41     0     0.00      0     0.0  0.00   0.0   0.067   0.000   71.2    56   54.7   70.4  10.33  .0733    0.000   202    7    100.0   10 
 9/04/26  4:30a   55.2   55.3   55.2    97   54.4   4.0     E   0.67  11.0    NE   54.8   55.5   55.1   52.8  29.744  0.22  3.11     0     0.00      0     0.0  0.00   0.0   0.068   0.000   71.1    56   54.6   70.2  10.33  .0733    0.000   203    7    100.0   10 
 9/04/26  4:40a   55.3   55.3   55.1    97   54.5   4.0     E   0.67  14.0   ENE   55.0   55.6   55.3   53.0  29.757  0.03  0.85     0     0.00      0     0.0  0.00   0.0   0.067   0.000   71.1    56   54.6   70.2  10.33  .0733    0.000   204    7    100.0   10 
 9/04/26  4:50a   56.0   56.1   55.3    97   55.2   5.0     S   0.83  12.0     S   55.3   56.3   55.6   53.3  29.764  0.01  0.15     0     0.00      0     0.0  0.00   0.0   0.063   0.000   71.1    56   54.6   70.2  10.33  .0733    0.000   201    7    100.0   10 
 9/04/26  5:00a   56.7   56.7   56.0    97   55.9   6.0     S   1.00  23.0     S   55.6   57.0   55.9   53.6  29.766  0.00  0.00     0     0.00      0     0.0  0.00   0.0   0.058   0.000   71.1    56   54.6   70.2  10.33  .0733    0.000   202    7    100.0   10 
 9/04/26  5:10a   56.9   56.9   56.7    97   56.1   4.0     S   0.67  18.0   SSE   56.9   57.2   57.2   54.9  29.771  0.00  0.00     0     0.00      0     0.0  0.00   0.0   0.056   0.000   71.1    56   54.6   70.2  10.33  .0733    0.000   202    7    100.0   10 
 9/04/26  5:20a   57.2   57.2   56.9    97   56.4   6.0     S   1.00  19.0   SSE   56.2   57.5   56.5   54.2  29.772  0.00  0.00     0     0.00      0     0.0  0.00   0.0   0.054   0.000   71.0    56   54.5   70.1  10.33  .0733    0.000   204    7    100.0   10 
 9/04/26  5:30a   57.5   57.5   57.2    97   56.7   6.0     S   1.00  16.0     S   56.6   57.8   56.9   54.6  29.775  0.00  0.00     0     0.00      0     0.0  0.00   0.0   0.052   0.000   71.0    56   54.5   70.1  10.33  .0733    0.000   203    7    100.0   10 
 9/04/26  5:40a   57.8   57.8   57.5    96   56.7   7.0     S   1.17  18.0   SSE   56.6   58.1   56.9   54.6  29.775  0.00  0.00     0     0.00      0     0.0  0.00   0.0   0.050   0.000   71.0    56   54.5   70.1  10.33  .0733    0.000   203    7    100.0   10 
 9/04/26  5:50a   57.9   57.9   57.8    96   56.8   8.0     S   1.33  17.0   SSE   56.0   58.2   56.3   54.1  29.775  0.04  0.87     0     0.00      0     0.0  0.00   0.0   0.049   0.000   71.0    56   54.5   70.1  10.33  .0733    0.000   203    7    100.0   10 
 9/04/26  6:00a   57.9   57.9   57.8    96   56.8   7.0     S   1.17  17.0     S   56.7   58.2   57.0   54.7  29.778  0.02  0.68     0     0.00      0     0.0  0.00   0.0   0.049   0.000   71.0    56   54.5   70.1  10.33  .0734    0.000   205    7    100.0   10 
 9/04/26  6:10a   57.8   57.9   57.8    96   56.7   8.0     S   1.33  20.0   SSE   55.9   58.1   56.2   54.0  29.781  0.03  0.68     0     0.00      0     0.0  0.00   0.0   0.050   0.000   70.9    56   54.4   70.0  10.33  .0734    0.000   201    7    100.0   10 
 9/04/26  6:20a   57.8   57.9   57.7    96   56.7   9.0     S   1.50  24.0   SSE   55.1   58.1   55.4   53.3  29.787  0.00  0.04     0     0.00      0     0.0  0.00   0.0   0.050   0.000   70.9    56   54.4   70.0  10.33  .0734    0.000   203    7    100.0   10 
 9/04/26  6:30a   57.7   57.8   57.6    96   56.6  10.0     S   1.67  21.0     S   54.3   58.0   54.6   52.6  29.789  0.01  0.04     0     0.00      0     0.0  0.00   0.0   0.051   0.000   70.9    56   54.4   70.0  10.33  .0734    0.000   198    7    100.0   10 
 9/04/26  6:40a   57.1   57.6   57.1    96   56.0  10.0     S   1.67  20.0   SSE   53.6   57.3   53.8   51.8  29.797  0.00  0.00     0     0.00      0     0.0  0.00   0.0   0.055   0.000   70.9    56   54.4   70.0  10.33  .0734    0.000   205    7    100.0   10 
 9/04/26  6:50a   57.1   57.2   57.0    96   56.0   6.0     S   1.00  13.0     S   56.1   57.3   56.3   54.0  29.800  0.01  0.00     0     0.00      0     0.0  0.00   0.0   0.055   0.000   70.9    56   54.4   70.0  10.33  .0734    0.000   203    7    100.0   10 
 9/04/26  7:00a   57.0   57.2   57.0    96   55.9   3.0     S   0.50   8.0   SSW   57.0   57.2   57.2   54.9  29.803  0.00  0.00     2     0.03      5     0.0  0.00   0.0   0.056   0.000   70.9    56   54.4   70.0  10.33  .0734    0.000   203    7    100.0   10 
 9/04/26  7:10a   57.2   57.3   57.0    96   56.1   3.0     S   0.50  11.0   ESE   57.2   57.5   57.5   55.5  29.808  0.00  0.00     9     0.13     12     0.0  0.00   0.0   0.054   0.000   70.9    56   54.4   70.0  10.33  .0734    0.000   204    7    100.0   10 
 9/04/26  7:20a   57.3   57.3   57.1    96   56.2   3.0     S   0.50  14.0     S   57.3   57.6   57.6   56.2  29.812  0.00  0.00    10     0.14     14     0.0  0.00   0.0   0.053   0.000   70.9    56   54.4   70.0  10.33  .0735    0.000   203    7    100.0   10 
 9/04/26  7:30a   57.4   57.5   57.2    96   56.3   4.0     S   0.67  14.0     S   57.4   57.7   57.7   56.2  29.819  0.00  0.00     8     0.11     12     0.0  0.00   0.0   0.053   0.000   70.9    56   54.4   70.0  10.33  .0735    0.000   202    7    100.0   10 
 9/04/26  7:40a   57.2   57.3   57.0    96   56.1   4.0     S   0.67  11.0   SSE   57.2   57.5   57.5   56.2  29.822  0.01  0.00    13     0.19     16     0.0  0.00   0.0   0.054   0.000   70.9    56   54.4   70.0  10.33  .0735    0.000   203    7    100.0   10 
 9/04/26  7:50a   57.1   57.2   57.1    96   56.0   3.0     S   0.50  12.0     S   57.1   57.3   57.3   56.5  29.826  0.01  0.06    23     0.33     32     0.0  0.00   0.0   0.055   0.000   70.9    56   54.4   70.0  10.33  .0735    0.000   204    7    100.0   10 
 9/04/26  8:00a   56.8   57.2   56.8    96   55.7   1.0   SSE   0.17   8.0   SSE   56.8   57.0   57.0   56.4  29.829  0.00  0.04    30     0.43     33     0.0  0.00   0.0   0.057   0.000   70.9    56   54.4   70.0  10.33  .0735    0.000   179    7     90.4   10 
 9/04/26  8:10a   56.4   56.8   56.4    96   55.3   1.0   ESE   0.17   7.0   ESE   56.4   56.6   56.6   55.8  29.833  0.03  0.15    27     0.39     33     0.0  0.00   0.0   0.060   0.000   70.9    56   54.4   70.0  10.33  .0735    0.000   202    7    100.0   10 
 9/04/26  8:20a   56.1   56.4   56.1    96   55.0   2.0     E   0.33   7.0     E   56.1   56.3   56.3   56.1  29.834  0.02  0.17    43     0.62     65     0.0  0.00   0.0   0.062   0.000   71.0    56   54.5   70.1  10.33  .0735    0.000   200    7    100.0   10 
 9/04/26  8:30a   56.1   56.2   56.0    96   55.0   1.0   ESE   0.17   6.0     E   56.1   56.3   56.3   57.5  29.836  0.00  0.05    79     1.13     84     0.0  0.00   0.0   0.062   0.000   71.0    56   54.5   70.1  10.33  .0735    0.000   203    7    100.0   10 
 9/04/26  8:40a   56.2   56.2   56.1    96   55.1   1.0     E   0.17   4.0   ENE   56.2   56.4   56.4   57.2  29.838  0.00  0.00    70     1.00     79     0.0  0.00   0.0   0.061   0.000   71.0    56   54.5   70.1  10.33  .0735    0.000   202    7    100.0   10 
 9/04/26  8:50a   56.1   56.2   56.1    96   55.0   1.0     E   0.17   4.0   ESE   56.1   56.3   56.3   57.4  29.844  0.00  0.00    81     1.16     83     0.0  0.00   0.0   0.062   0.000   71.1    56   54.6   70.2  10.33  .0735    0.000   204    7    100.0   10 
 9/04/26  9:00a   56.0   56.1   56.0    96   54.9   1.0     E   0.17   7.0    SE   56.0   56.2   56.2   56.5  29.847  0.01  0.00    62     0.89     81     0.0  0.00   0.0   0.063   0.000   71.1    56   54.6   70.2  10.33  .0735    0.001   203    7    100.0   10 
 9/04/26  9:10a   55.9   56.0   55.9    96   54.8   1.0     E   0.17   6.0     E   55.9   56.1   56.1   55.8  29.844  0.03  0.42    48     0.69     53     0.0  0.00   0.0   0.063   0.000   71.1    56   54.6   70.2  10.33  .0735    0.000   204    7    100.0   10 
 9/04/26  9:20a   56.0   56.0   55.9    97   55.2   1.0     E   0.17   6.0   ENE   56.0   56.3   56.3   56.5  29.843  0.01  0.14    63     0.90     74     0.0  0.00   0.0   0.063   0.000   71.1    56   54.6   70.2  10.33  .0735    0.000   204    7    100.0   10 
 9/04/26  9:30a   56.1   56.1   56.0    97   55.3   2.0     E   0.33   8.0   ESE   56.1   56.4   56.4   57.3  29.845  0.01  0.05    88     1.26     95     0.0  0.00   0.0   0.062   0.000   71.1    56   54.6   70.2  10.33  .0735    0.000   203    7    100.0   10 
 9/04/26  9:40a   56.2   56.2   56.1    97   55.4   1.0     E   0.17   8.0   NNE   56.2   56.5   56.5   58.2  29.847  0.02  0.22   115     1.65    134     0.5  0.04   0.6   0.061   0.000   71.1    56   54.6   70.2  10.33  .0735    0.000   202    7    100.0   10 
 9/04/26  9:50a   56.2   56.3   56.2    97   55.4   2.0     E   0.33   7.0   ENE   56.2   56.5   56.5   58.3  29.849  0.05  0.38   122     1.75    135     0.6  0.04   0.7   0.061   0.000   71.1    56   54.6   70.2  10.33  .0735    0.000   201    7    100.0   10 
 9/04/26 10:00a   56.3   56.4   56.2    97   55.5   2.0     E   0.33   8.0     E   56.3   56.6   56.6   58.3  29.853  0.02  0.31   122     1.75    128     0.7  0.05   0.8   0.060   0.000   71.2    56   54.7   70.4  10.33  .0735    0.002   202    7    100.0   10 
 9/04/26 10:10a   56.4   56.4   56.3    97   55.6   3.0     E   0.50   9.0     E   56.4   56.7   56.7   58.7  29.849  0.00  0.05   135     1.94    146     1.0  0.07   1.2   0.060   0.000   71.2    56   54.7   70.4  10.33  .0735    0.000   203    7    100.0   10 
 9/04/26 10:20a   56.4   56.5   56.4    97   55.6   3.0     E   0.50   9.0   ENE   56.4   56.7   56.7   58.8  29.851  0.00  0.00   140     2.01    156     1.3  0.09   1.3   0.060   0.000   71.3    56   54.8   70.5  10.32  .0735    0.000   202    7    100.0   10 
 9/04/26 10:30a   56.6   56.6   56.4    97   55.8   3.0     E   0.50   9.0     E   56.6   56.9   56.9   59.4  29.855  0.00  0.00   157     2.25    172     1.2  0.09   1.3   0.058   0.000   71.3    56   54.8   70.5  10.32  .0735    0.000   202    7    100.0   10 
 9/04/26 10:40a   56.5   56.6   56.5    97   55.7   2.0     E   0.33   8.0     E   56.5   56.8   56.8   57.8  29.858  0.00  0.00   107     1.53    142     0.9  0.06   1.1   0.059   0.000   71.4    56   54.9   70.7  10.32  .0735    0.000   201    7    100.0   10 
 9/04/26 10:50a   57.1   57.1   56.5    97   56.3   2.0     E   0.33   6.0     E   57.1   57.4   57.4   61.5  29.864  0.00  0.00   226     3.24    290     1.5  0.11   1.6   0.055   0.000   71.4    56   54.9   70.7  10.32  .0735    0.000   202    7    100.0   10 
 9/04/26 11:00a   57.2   57.3   57.1    97   56.4   1.0     E   0.17   6.0   ESE   57.2   57.5   57.5   60.5  29.870  0.01  0.00   183     2.62    227     1.2  0.09   1.6   0.054   0.000   71.4    56   54.9   70.7  10.32  .0735    0.003   203    7    100.0   10 
 9/04/26 11:10a   57.2   57.2   57.1    97   56.4   1.0   ESE   0.17   5.0   SSE   57.2   57.5   57.5   58.6  29.876  0.00  0.00   115     1.65    135     0.8  0.06   0.9   0.054   0.000   71.4    56   54.9   70.7  10.32  .0735    0.000   204    7    100.0   10 
 9/04/26 11:20a   57.4   57.4   57.1    97   56.6   1.0     E   0.17   4.0   ESE   57.4   57.7   57.7   59.8  29.875  0.00  0.00   152     2.18    197     1.2  0.09   1.5   0.053   0.000   71.4    56   54.9   70.7  10.32  .0735    0.000   204    7    100.0   10 
 9/04/26 11:30a   58.1   58.1   57.4    98   57.5   1.0     E   0.17   7.0     E   58.1   58.5   58.5   64.7  29.876  0.00  0.00   331     4.74    434     2.2  0.16   2.7   0.048   0.000   71.5    56   55.0   70.8  10.32  .0735    0.000   201    7    100.0   10 
 9/04/26 11:40a   58.7   58.7   58.2    97   57.9   1.0     E   0.17   5.0     E   58.7   59.1   59.1   65.1  29.882  0.00  0.00   323     4.63    424     2.2  0.16   2.7   0.044   0.000   71.5    56   55.0   70.8  10.32  .0735    0.000   202    7    100.0   10 
 9/04/26 11:50a   58.3   58.7   58.2    97   57.5   0.0     E   0.00   3.0     E   58.3   58.7   58.7   59.7  29.886  0.00  0.00   111     1.59    165     1.1  0.08   1.3   0.047   0.000   71.6    56   55.1   71.0  10.32  .0735    0.000   203    7    100.0   10 
 9/04/26 12:00p   58.3   58.4   58.2    98   57.7   0.0     E   0.00   3.0     E   58.3   58.7   58.7   61.6  29.888  0.00  0.00   189     2.71    204     1.6  0.11   1.7   0.047   0.000   71.6    56   55.1   71.0  10.32  .0735    0.004   201    7    100.0   10 
 9/04/26 12:10p   58.5   58.5   58.3    97   57.7   0.0   ESE   0.00   4.0   ESE   58.5   58.9   58.9   60.9  29.888  0.00  0.00   155     2.22    171     1.3  0.09   1.4   0.045   0.000   71.6    56   55.1   71.0  10.32  .0735    0.000   200    7    100.0   10 
 9/04/26 12:20p   58.4   58.5   58.3    98   57.8   1.0   ESE   0.17   3.0   ESE   58.4   58.8   58.8   61.4  29.888  0.01  0.00   179     2.57    285     1.5  0.11   2.3   0.046   0.000   71.6    56   55.1   71.0  10.32  .0735    0.000   202    7    100.0   10 
 9/04/26 12:30p   59.0   59.1   58.4    98   58.4   1.0     E   0.17   5.0   SSE   59.0   59.5   59.5   64.9  29.889  0.01  0.08   299     4.29    359     2.4  0.17   2.7   0.042   0.000   71.6    56   55.1   71.0  10.32  .0735    0.000   200    7    100.0   10 
 9/04/26 12:40p   59.6   59.6   59.0    98   59.0   0.0     E   0.00   3.0   ENE   59.6   60.1   60.1   67.2  29.891  0.00  0.00   386     5.53    541     2.9  0.21   3.7   0.038   0.000   71.7    56   55.2   71.1  10.32  .0735    0.000   202    7    100.0   10 
 9/04/26 12:50p   57.7   59.6   57.7    97   56.9   3.0   SSW   0.50   8.0   SSW   57.7   58.0   58.0   61.3  29.897  0.00  0.00   210     3.01    287     1.8  0.13   2.6   0.051   0.000   71.8    56   55.3   71.3  10.31  .0735    0.000   202    7    100.0   10 
 9/04/26  1:00p   57.9   57.9   57.6    97   57.1   2.0   SSW   0.33   6.0   SSE   57.9   58.2   58.2   63.1  29.900  0.00  0.00   283     4.06    366     2.2  0.16   2.6   0.049   0.000   71.8    56   55.3   71.3  10.31  .0735    0.005   199    7    100.0   10 
 9/04/26  1:10p   58.2   58.2   57.9    97   57.4   0.0   SSW   0.00   3.0   SSW   58.2   58.6   58.6   62.8  29.897  0.00  0.00   249     3.57    274     2.1  0.15   2.2   0.047   0.000   71.8    56   55.3   71.3  10.31  .0735    0.000   198    7    100.0   10 
 9/04/26  1:20p   60.7   60.7   58.2    99   60.4   0.0     E   0.00   6.0     E   60.7   61.3   61.3   72.2  29.896  0.00  0.00   911    13.06   1116     4.7  0.34   5.8   0.030   0.000   71.9    56   55.3   71.4  10.31  .0735    0.000   204    7    100.0   10 
 9/04/26  1:30p   61.5   61.6   60.7    98   60.9   1.0     E   0.17   8.0     E   61.5   62.2   62.2   72.8  29.898  0.00  0.00   621     8.90    816     4.4  0.31   4.8   0.024   0.000   72.0    56   55.4   71.6  10.31  .0735    0.000   201    7    100.0   10 
 9/04/26  1:40p   58.9   61.8   58.9    97   58.1   2.0   SSW   0.33   8.0    SE   58.9   59.3   59.3   64.0  29.901  0.00  0.00   271     3.88    621     2.6  0.19   4.4   0.042   0.000   72.0    57   55.9   71.7  10.47  .0735    0.000   203    7    100.0   10 
 9/04/26  1:50p   58.5   58.9   58.2    97   57.7   6.0   SSW   1.00  10.0   SSE   57.8   58.9   58.2   61.1  29.903  0.00  0.00   190     2.72    241     2.9  0.21   4.7   0.045   0.000   72.1    58   56.5   71.9  10.67  .0734    0.000   203    7    100.0   10 
 9/04/26  2:00p   58.3   58.4   58.1    97   57.5   7.0   SSW   1.17  11.0     S   57.2   58.7   57.6   62.4  29.901  0.00  0.00   280     4.01    306     2.1  0.15   2.5   0.047   0.000   72.0    58   56.4   71.7  10.67  .0734    0.010   203    7    100.0   10 
 9/04/26  2:10p   59.0   59.0   58.2    98   58.4   1.0   SSW   0.17   5.0   SSW   59.0   59.5   59.5   64.0  29.903  0.00  0.00   259     3.71    283     1.8  0.13   2.1   0.042   0.000   72.0    58   56.4   71.7  10.67  .0735    0.000   203    7    100.0   10 
 9/04/26  2:20p   60.6   60.6   58.9    98   60.0   2.0     E   0.33   8.0   ENE   60.6   61.2   61.2   69.7  29.900  0.00  0.00   460     6.59    570     3.4  0.24   5.3   0.031   0.000   72.1    58   56.5   71.9  10.67  .0734    0.000   201    7    100.0   10 
 9/04/26  2:30p   61.2   61.6   60.6    98   60.6   1.0     E   0.17   6.0     E   61.2   61.8   61.8   69.7  29.905  0.00  0.00   423     6.06    997     3.3  0.24   4.9   0.026   0.000   72.1    57   56.0   71.8  10.47  .0735    0.000   202    7    100.0   10 
 9/04/26  2:40p   59.4   61.2   59.4    97   58.5   2.0     S   0.33   6.0     S   59.4   59.9   59.9   62.2  29.912  0.00  0.00   164     2.35    221     1.3  0.09   1.8   0.039   0.000   72.2    57   56.1   72.0  10.46  .0735    0.000   202    7    100.0   10 
 9/04/26  2:50p   58.9   59.3   58.9    97   58.1   4.0     S   0.67  10.0   SSW   58.9   59.3   59.3   62.9  29.914  0.00  0.00   213     3.05    278     1.5  0.11   1.8   0.042   0.000   72.2    57   56.1   72.0  10.46  .0735    0.000   202    7    100.0   10 
 9/04/26  3:00p   58.9   59.0   58.6    97   58.1   6.0     S   1.00  10.0    SE   58.3   59.3   58.7   69.6  29.914  0.00  0.00   642     9.20    831     3.2  0.23   4.2   0.042   0.000   72.3    58   56.7   72.2  10.66  .0734    0.008   199    7    100.0   10 
 9/04/26  3:10p   59.0   59.1   58.8    97   58.2   5.0   SSW   0.83   8.0   SSW   58.8   59.4   59.2   70.3  29.915  0.00  0.00   808    11.58    867     3.8  0.27   4.1   0.042   0.000   72.3    58   56.7   72.2  10.66  .0734    0.000   202    7    100.0   10 
 9/04/26  3:20p   58.8   59.1   58.8    97   58.0   7.0     S   1.17  14.0     S   57.8   59.2   58.2   63.2  29.914  0.00  0.00   275     3.94    316     2.2  0.16   3.8   0.043   0.000   72.4    58   56.8   72.3  10.65  .0734    0.000   201    7    100.0   10 
Email: AdamSPAM@StormwatchersRetreat.com (To send me email remove the word 'SPAM' from my email address.)